createdAt,value
2023-04-08T00:01:09.629Z,8.42
2023-04-08T00:03:37.155Z,8.32
2023-04-08T00:06:04.956Z,8.35
2023-04-08T00:08:32.353Z,8.34
2023-04-08T00:10:59.798Z,8.34
2023-04-08T00:13:27.297Z,8.27
2023-04-08T00:15:54.741Z,8.45
2023-04-08T00:18:22.121Z,8.48
2023-04-08T00:20:49.677Z,8.49
2023-04-08T00:23:17.051Z,8.59
2023-04-08T00:25:44.865Z,8.74
2023-04-08T00:28:12.316Z,8.54
2023-04-08T00:30:39.815Z,8.55
2023-04-08T00:33:08.760Z,8.60
2023-04-08T00:35:36.219Z,8.67
2023-04-08T00:38:04.190Z,8.69
2023-04-08T00:40:31.609Z,8.51
2023-04-08T00:42:59.083Z,8.45
2023-04-08T00:45:26.690Z,8.50
2023-04-08T00:47:54.202Z,8.38
2023-04-08T00:50:21.627Z,8.27
2023-04-08T00:52:49.030Z,8.22
2023-04-08T00:55:16.478Z,8.28
2023-04-08T00:57:44.178Z,8.20
2023-04-08T01:00:11.996Z,8.06
2023-04-08T01:02:42.332Z,8.00
2023-04-08T01:05:09.991Z,8.12
2023-04-08T01:07:47.724Z,8.24
2023-04-08T01:10:21.144Z,8.28
2023-04-08T01:12:54.983Z,8.26
2023-04-08T01:15:23.254Z,8.31
2023-04-08T01:17:54.068Z,8.19
2023-04-08T01:20:22.370Z,8.02
2023-04-08T01:22:49.742Z,7.97
2023-04-08T01:25:22.170Z,7.94
2023-04-08T01:27:49.991Z,7.79
2023-04-08T01:30:22.039Z,7.86
2023-04-08T01:32:52.165Z,7.72
2023-04-08T01:35:19.742Z,7.70
2023-04-08T01:37:48.207Z,7.59
2023-04-08T01:40:16.504Z,7.58
2023-04-08T01:42:44.917Z,7.70
2023-04-08T01:45:12.441Z,7.56
2023-04-08T01:47:40.698Z,7.64
2023-04-08T01:50:10.015Z,7.59
2023-04-08T01:52:38.839Z,7.53
2023-04-08T01:55:06.605Z,7.48
2023-04-08T01:57:36.153Z,7.32
2023-04-08T02:00:08.596Z,7.30
2023-04-08T02:02:38.006Z,7.47
2023-04-08T02:05:05.850Z,7.34
2023-04-08T02:07:33.272Z,7.56
2023-04-08T02:10:00.804Z,7.45
2023-04-08T02:12:29.317Z,7.60
2023-04-08T02:14:57.761Z,7.54
2023-04-08T02:17:44.239Z,7.51
2023-04-08T02:20:12.541Z,7.50
2023-04-08T02:22:39.952Z,7.50
2023-04-08T02:25:09.820Z,7.56
2023-04-08T02:27:38.486Z,7.46
2023-04-08T02:30:07.172Z,7.23
2023-04-08T02:32:35.899Z,7.29
2023-04-08T02:35:04.256Z,7.07
2023-04-08T02:37:31.962Z,7.34
2023-04-08T02:39:59.658Z,7.22
2023-04-08T02:42:27.324Z,7.18
2023-04-08T02:44:54.740Z,7.25
2023-04-08T02:47:22.106Z,7.43
2023-04-08T02:49:52.516Z,7.31
2023-04-08T02:52:20.397Z,7.41
2023-04-08T02:54:47.763Z,7.42
2023-04-08T02:57:17.026Z,7.41
2023-04-08T02:59:44.391Z,7.51
2023-04-08T03:02:11.921Z,7.56
2023-04-08T03:04:39.357Z,7.58
2023-04-08T03:07:08.687Z,7.46
2023-04-08T03:09:36.338Z,7.41
2023-04-08T03:12:03.955Z,7.47
2023-04-08T03:14:31.476Z,7.49
2023-04-08T03:16:58.928Z,7.52
2023-04-08T03:19:26.444Z,7.36
2023-04-08T03:21:53.782Z,7.46
2023-04-08T03:24:21.202Z,7.41
2023-04-08T03:26:48.630Z,7.29
2023-04-08T03:29:16.124Z,7.21
2023-04-08T03:31:43.694Z,7.45
2023-04-08T03:34:11.193Z,7.48
2023-04-08T03:36:38.561Z,7.59
2023-04-08T03:39:06.433Z,7.58
2023-04-08T03:41:33.898Z,7.61
2023-04-08T03:44:01.347Z,7.52
2023-04-08T03:46:28.790Z,7.33
2023-04-08T03:48:56.198Z,7.40
2023-04-08T03:51:23.635Z,7.29
2023-04-08T03:53:51.024Z,7.38
2023-04-08T03:56:18.435Z,7.46
2023-04-08T03:58:45.886Z,7.57
2023-04-08T04:01:13.281Z,7.66
2023-04-08T04:03:41.411Z,7.66
2023-04-08T04:06:08.980Z,7.60
2023-04-08T04:08:36.335Z,7.59
2023-04-08T04:11:03.818Z,7.62
2023-04-08T04:13:31.228Z,7.68
2023-04-08T04:15:58.705Z,7.65
2023-04-08T04:18:26.211Z,7.32
2023-04-08T04:20:53.623Z,7.43
2023-04-08T04:23:21.207Z,7.39
2023-04-08T04:25:48.572Z,7.51
2023-04-08T04:28:15.949Z,7.57
2023-04-08T04:30:43.319Z,7.54
2023-04-08T04:33:10.777Z,7.57
2023-04-08T04:35:38.266Z,7.61
2023-04-08T04:38:10.591Z,7.65
2023-04-08T04:40:38.106Z,7.46
2023-04-08T04:43:05.623Z,7.65
2023-04-08T04:45:32.979Z,7.30
2023-04-08T04:48:00.410Z,7.49
2023-04-08T04:50:27.892Z,7.55
2023-04-08T04:52:55.305Z,7.77
2023-04-08T04:55:23.370Z,7.60
2023-04-08T04:57:50.906Z,7.76
2023-04-08T05:00:18.355Z,7.70
2023-04-08T05:02:45.964Z,7.51
2023-04-08T05:05:13.647Z,7.60
2023-04-08T05:07:41.108Z,7.73
2023-04-08T05:10:08.640Z,7.87
2023-04-08T05:12:37.773Z,7.87
2023-04-08T05:15:06.544Z,7.95
2023-04-08T05:17:33.954Z,7.98
2023-04-08T05:20:01.808Z,7.94
2023-04-08T05:22:29.228Z,7.90
2023-04-08T05:24:56.657Z,7.96
2023-04-08T05:27:24.093Z,7.92
2023-04-08T05:29:51.646Z,7.77
2023-04-08T05:32:19.022Z,7.74
2023-04-08T05:34:46.546Z,7.62
2023-04-08T05:37:13.917Z,7.71
2023-04-08T05:39:42.618Z,7.67
2023-04-08T05:42:11.022Z,7.72
2023-04-08T05:44:38.724Z,7.82
2023-04-08T05:47:06.234Z,7.64
2023-04-08T05:49:34.694Z,7.67
2023-04-08T05:52:02.268Z,7.55
2023-04-08T05:54:29.678Z,7.52
2023-04-08T05:56:57.103Z,7.43
2023-04-08T05:59:24.541Z,7.35
2023-04-08T06:01:51.977Z,7.32
2023-04-08T06:04:19.950Z,7.25
2023-04-08T06:06:47.402Z,7.43
2023-04-08T06:09:14.740Z,7.54
2023-04-08T06:11:42.148Z,7.42
2023-04-08T06:14:09.630Z,7.32
2023-04-08T06:16:37.262Z,7.12
2023-04-08T06:19:04.795Z,6.97
2023-04-08T06:21:32.189Z,7.05
2023-04-08T06:23:59.711Z,7.38
2023-04-08T06:26:27.827Z,7.24
2023-04-08T06:28:55.291Z,7.10
2023-04-08T06:31:22.951Z,7.09
2023-04-08T06:33:50.465Z,7.13
2023-04-08T06:36:17.879Z,7.18
2023-04-08T06:38:45.318Z,6.82
2023-04-08T06:41:12.729Z,7.03
2023-04-08T06:43:40.426Z,6.82
2023-04-08T06:46:07.904Z,6.56
2023-04-08T06:48:37.590Z,6.43
2023-04-08T06:51:05.135Z,6.37
2023-04-08T06:53:33.472Z,6.26
2023-04-08T06:56:01.477Z,6.29
2023-04-08T06:58:29.775Z,6.54
2023-04-08T07:00:57.408Z,6.50
2023-04-08T07:03:25.076Z,6.54
2023-04-08T07:05:52.598Z,6.48
2023-04-08T07:08:20.090Z,6.54
2023-04-08T07:10:47.492Z,6.57
2023-04-08T07:13:14.920Z,6.74
2023-04-08T07:15:42.643Z,6.46
2023-04-08T07:18:10.623Z,6.92
2023-04-08T07:20:38.522Z,6.78
2023-04-08T07:23:06.570Z,6.50
2023-04-08T07:25:35.227Z,6.56
2023-04-08T07:28:02.818Z,6.62
2023-04-08T07:30:30.334Z,6.66
2023-04-08T07:33:00.559Z,7.00
2023-04-08T07:35:28.440Z,7.17
2023-04-08T07:37:57.695Z,7.31
2023-04-08T07:40:25.335Z,7.42
2023-04-08T07:42:53.148Z,7.29
2023-04-08T07:45:21.139Z,7.43
2023-04-08T07:47:48.567Z,7.50
2023-04-08T07:50:16.017Z,7.07
2023-04-08T07:52:43.386Z,6.93
2023-04-08T07:55:10.882Z,6.93
2023-04-08T07:57:38.306Z,7.14
2023-04-08T08:00:05.938Z,7.33
2023-04-08T08:02:34.927Z,7.18
2023-04-08T08:05:03.541Z,7.46
2023-04-08T08:07:31.319Z,7.30
2023-04-08T08:09:58.694Z,7.85
2023-04-08T08:12:26.243Z,8.06
2023-04-08T08:14:54.809Z,7.87
2023-04-08T08:17:22.283Z,8.38
2023-04-08T08:19:49.740Z,8.74
2023-04-08T08:22:17.153Z,9.03
2023-04-08T08:24:44.526Z,9.17
2023-04-08T08:27:12.313Z,9.28
2023-04-08T08:29:39.727Z,9.59
2023-04-08T08:32:07.226Z,9.76
2023-04-08T08:34:34.661Z,9.79
2023-04-08T08:37:02.077Z,9.80
2023-04-08T08:39:29.626Z,10.05
2023-04-08T08:41:57.156Z,10.50
2023-04-08T08:44:24.638Z,10.28
2023-04-08T08:46:52.208Z,10.50
2023-04-08T08:49:19.932Z,10.78
2023-04-08T08:51:47.760Z,11.11
2023-04-08T08:54:16.911Z,11.01
2023-04-08T08:56:44.301Z,11.11
2023-04-08T08:59:11.672Z,11.60
2023-04-08T09:01:41.331Z,11.91
2023-04-08T09:04:09.952Z,12.28
2023-04-08T09:06:38.218Z,12.58
2023-04-08T09:09:10.249Z,13.06
2023-04-08T09:11:39.826Z,12.25
2023-04-08T09:14:18.081Z,12.47
2023-04-08T09:16:45.850Z,13.15
2023-04-08T09:19:13.459Z,13.48
2023-04-08T09:21:41.710Z,13.90
2023-04-08T09:24:10.041Z,13.17
2023-04-08T09:26:38.591Z,13.66
2023-04-08T09:29:24.995Z,13.87
2023-04-08T09:32:00.014Z,13.88
2023-04-08T09:34:28.298Z,13.59
2023-04-08T09:36:56.361Z,14.30
2023-04-08T09:39:24.101Z,14.74
2023-04-08T09:41:52.623Z,14.98
2023-04-08T09:44:21.945Z,14.79
2023-04-08T09:46:52.631Z,14.32
2023-04-08T09:49:20.096Z,13.78
2023-04-08T09:52:08.433Z,14.42
2023-04-08T09:54:43.100Z,14.15
2023-04-08T09:57:36.597Z,14.01
2023-04-08T10:00:11.524Z,15.05
2023-04-08T10:02:51.156Z,14.17
2023-04-08T10:05:19.360Z,15.15
2023-04-08T10:07:46.910Z,15.03
2023-04-08T10:10:14.514Z,15.03
2023-04-08T10:12:42.209Z,16.15
2023-04-08T10:15:28.474Z,15.99
2023-04-08T10:17:57.113Z,15.59
2023-04-08T10:20:36.956Z,15.66
2023-04-08T10:23:08.221Z,15.19
2023-04-08T10:25:36.485Z,15.57
2023-04-08T10:28:24.367Z,15.93
2023-04-08T10:30:58.606Z,16.16
2023-04-08T10:33:32.880Z,15.90
2023-04-08T10:36:02.937Z,16.20
2023-04-08T10:38:30.519Z,15.40
2023-04-08T10:40:58.399Z,15.26
2023-04-08T10:43:25.788Z,15.19
2023-04-08T10:45:54.245Z,15.66
2023-04-08T10:48:24.557Z,16.12
2023-04-08T10:50:55.987Z,16.58
2023-04-08T10:53:32.308Z,17.02
2023-04-08T10:56:11.086Z,15.94
2023-04-08T10:58:48.573Z,16.09
2023-04-08T11:01:16.116Z,16.05
2023-04-08T11:03:44.128Z,17.26
2023-04-08T11:06:12.041Z,17.66
2023-04-08T11:08:39.630Z,17.83
2023-04-08T11:11:09.211Z,17.29
2023-04-08T11:13:37.461Z,16.77
2023-04-08T11:18:36.099Z,17.68
2023-04-08T11:21:03.834Z,17.44
2023-04-08T11:23:31.286Z,17.31
2023-04-08T11:25:58.838Z,17.39
2023-04-08T11:28:27.147Z,16.95
2023-04-08T11:30:55.145Z,16.56
2023-04-08T11:33:22.598Z,15.87
2023-04-08T11:35:52.184Z,17.20
2023-04-08T11:38:23.124Z,17.08
2023-04-08T11:40:54.262Z,17.48
2023-04-08T11:43:22.123Z,16.94
2023-04-08T11:45:49.646Z,17.89
2023-04-08T11:48:17.721Z,18.07
2023-04-08T11:50:45.610Z,17.68
2023-04-08T11:53:20.671Z,17.96
2023-04-08T11:55:48.549Z,17.26
2023-04-08T11:58:16.825Z,17.35
2023-04-08T12:00:45.622Z,17.34
2023-04-08T12:03:13.539Z,17.38
2023-04-08T12:05:42.540Z,17.23
2023-04-08T12:08:10.036Z,17.53
2023-04-08T12:10:37.456Z,17.43
2023-04-08T12:13:04.822Z,17.84
2023-04-08T12:15:32.838Z,17.44
2023-04-08T12:18:00.327Z,18.79
2023-04-08T12:20:27.810Z,17.99
2023-04-08T12:22:55.213Z,18.01
2023-04-08T12:25:22.688Z,17.98
2023-04-08T12:27:50.797Z,18.52
2023-04-08T12:30:18.262Z,18.26
2023-04-08T12:32:47.597Z,18.76
2023-04-08T12:35:15.058Z,18.48
2023-04-08T12:37:42.529Z,18.91
2023-04-08T12:40:11.014Z,18.61
2023-04-08T12:42:38.496Z,17.85
2023-04-08T12:45:06.645Z,18.12
2023-04-08T12:47:34.190Z,18.10
2023-04-08T12:50:02.097Z,18.16
2023-04-08T12:52:29.538Z,18.33
2023-04-08T12:54:56.984Z,18.52
2023-04-08T12:57:24.363Z,17.80
2023-04-08T12:59:51.990Z,18.18
2023-04-08T13:02:19.535Z,18.22
2023-04-08T13:04:47.219Z,18.52
2023-04-08T13:07:14.630Z,17.46
2023-04-08T13:09:42.648Z,17.40
2023-04-08T13:12:12.237Z,17.80
2023-04-08T13:14:39.838Z,18.04
2023-04-08T13:17:07.309Z,18.38
2023-04-08T13:19:35.074Z,17.77
2023-04-08T13:22:02.516Z,18.66
2023-04-08T13:24:29.910Z,17.99
2023-04-08T13:26:57.592Z,17.84
2023-04-08T13:29:25.007Z,16.88
2023-04-08T13:31:53.456Z,16.46
2023-04-08T13:34:21.101Z,16.46
2023-04-08T13:36:48.518Z,17.31
2023-04-08T13:39:15.960Z,17.58
2023-04-08T13:41:43.342Z,17.46
2023-04-08T13:44:11.418Z,17.81
2023-04-08T13:46:39.592Z,17.91
2023-04-08T13:49:09.506Z,17.53
2023-04-08T13:51:36.901Z,17.95
2023-04-08T13:54:04.604Z,17.33
2023-04-08T13:56:31.994Z,17.27
2023-04-08T13:58:59.610Z,17.62
2023-04-08T14:01:28.621Z,16.73
2023-04-08T14:03:56.440Z,16.08
2023-04-08T14:06:23.858Z,16.05
2023-04-08T14:08:51.613Z,16.25
2023-04-08T14:11:19.550Z,15.72
2023-04-08T14:13:46.928Z,15.82
2023-04-08T14:16:14.452Z,15.08
2023-04-08T14:18:41.925Z,15.04
2023-04-08T14:21:09.347Z,15.39
2023-04-08T14:23:36.776Z,15.33
2023-04-08T14:26:04.247Z,15.72
2023-04-08T14:28:31.667Z,15.65
2023-04-08T14:30:59.241Z,15.64
2023-04-08T14:33:27.250Z,15.31
2023-04-08T14:35:54.811Z,15.40
2023-04-08T14:38:23.246Z,15.91
2023-04-08T14:40:50.685Z,15.62
2023-04-08T14:43:18.111Z,15.93
2023-04-08T14:45:45.932Z,15.60
2023-04-08T14:48:13.404Z,15.57
2023-04-08T14:50:40.753Z,15.28
2023-04-08T14:53:08.128Z,15.60
2023-04-08T14:55:35.535Z,14.78
2023-04-08T14:58:02.945Z,15.41
2023-04-08T15:00:30.346Z,15.29
2023-04-08T15:02:57.865Z,15.01
2023-04-08T15:05:25.647Z,14.96
2023-04-08T15:07:53.071Z,15.13
2023-04-08T15:10:20.554Z,15.26
2023-04-08T15:12:47.924Z,15.00
2023-04-08T15:15:15.536Z,15.56
2023-04-08T15:17:43.029Z,15.32
2023-04-08T15:20:10.918Z,14.94
2023-04-08T15:22:38.363Z,15.06
2023-04-08T15:25:06.105Z,15.13
2023-04-08T15:27:34.286Z,15.10
2023-04-08T15:30:01.880Z,15.44
2023-04-08T15:32:29.424Z,15.31
2023-04-08T15:34:57.043Z,15.22
2023-04-08T15:37:24.929Z,15.06
2023-04-08T15:39:53.696Z,14.66
2023-04-08T15:42:21.687Z,14.63
2023-04-08T15:44:49.262Z,14.52
2023-04-08T15:47:16.944Z,14.67
2023-04-08T15:49:44.809Z,14.73
2023-04-08T15:52:12.334Z,14.43
2023-04-08T15:54:39.741Z,14.45
2023-04-08T15:57:08.253Z,14.42
2023-04-08T15:59:35.791Z,14.19
2023-04-08T16:02:03.313Z,14.10
2023-04-08T16:04:30.978Z,14.14
2023-04-08T16:06:58.439Z,14.17
2023-04-08T16:09:27.142Z,14.29
2023-04-08T16:11:56.677Z,14.49
2023-04-08T16:14:24.057Z,14.09
2023-04-08T16:16:51.442Z,14.28
2023-04-08T16:19:18.845Z,13.85
2023-04-08T16:21:46.264Z,14.02
2023-04-08T16:24:14.280Z,14.32
2023-04-08T16:26:41.897Z,14.13
2023-04-08T16:29:09.510Z,14.31
2023-04-08T16:31:37.415Z,14.31
2023-04-08T16:34:05.328Z,14.13
2023-04-08T16:36:32.699Z,14.10
2023-04-08T16:39:00.128Z,13.76
2023-04-08T16:41:27.625Z,13.85
2023-04-08T16:43:55.087Z,13.89
2023-04-08T16:46:22.869Z,13.58
2023-04-08T16:48:50.502Z,13.55
2023-04-08T16:51:18.694Z,13.36
2023-04-08T16:53:46.105Z,13.44
2023-04-08T16:56:17.013Z,13.67
2023-04-08T16:58:44.502Z,13.61
2023-04-08T17:01:14.092Z,13.73
2023-04-08T17:03:41.913Z,13.92
2023-04-08T17:06:10.038Z,13.69
2023-04-08T17:08:37.551Z,13.54
2023-04-08T17:11:10.377Z,13.65
2023-04-08T17:13:39.029Z,13.62
2023-04-08T17:16:07.187Z,13.58
2023-04-08T17:18:34.642Z,13.22
2023-04-08T17:21:02.373Z,13.27
2023-04-08T17:23:29.828Z,13.01
2023-04-08T17:25:57.195Z,13.05
2023-04-08T17:28:24.621Z,12.70
2023-04-08T17:30:52.025Z,12.57
2023-04-08T17:33:19.478Z,12.25
2023-04-08T17:35:46.912Z,12.37
2023-04-08T17:38:14.359Z,12.26
2023-04-08T17:40:41.760Z,12.29
2023-04-08T17:43:09.311Z,12.08
2023-04-08T17:45:36.750Z,12.03
2023-04-08T17:48:07.385Z,11.88
2023-04-08T17:50:36.677Z,11.73
2023-04-08T17:53:04.151Z,11.70
2023-04-08T17:55:31.644Z,11.72
2023-04-08T17:57:59.061Z,11.71
2023-04-08T18:00:26.499Z,11.74
2023-04-08T18:02:53.986Z,11.67
2023-04-08T18:05:21.729Z,11.74
2023-04-08T18:07:49.164Z,11.53
2023-04-08T18:10:17.294Z,11.35
2023-04-08T18:12:44.739Z,11.40
2023-04-08T18:15:12.335Z,11.42
2023-04-08T18:17:39.958Z,11.29
2023-04-08T18:20:07.880Z,11.36
2023-04-08T18:22:35.295Z,11.20
2023-04-08T18:25:02.757Z,11.24
2023-04-08T18:27:30.271Z,11.20
2023-04-08T18:29:57.693Z,11.38
2023-04-08T18:32:25.353Z,11.55
2023-04-08T18:34:53.160Z,11.39
2023-04-08T18:37:21.704Z,11.32
2023-04-08T18:39:49.150Z,11.42
2023-04-08T18:42:16.573Z,11.45
2023-04-08T18:44:44.133Z,11.53
2023-04-08T18:47:12.091Z,11.51
2023-04-08T18:49:39.557Z,11.29
2023-04-08T18:52:08.437Z,11.42
2023-04-08T18:54:36.034Z,11.59
2023-04-08T18:57:04.464Z,11.38
2023-04-08T18:59:31.867Z,11.33
2023-04-08T19:01:59.562Z,11.16
2023-04-08T19:04:27.489Z,11.14
2023-04-08T19:06:55.069Z,11.10
2023-04-08T19:09:22.539Z,11.11
2023-04-08T19:11:49.981Z,10.97
2023-04-08T19:14:17.868Z,11.19
2023-04-08T19:16:46.011Z,11.17
2023-04-08T19:19:13.456Z,11.08
2023-04-08T19:21:40.926Z,11.09
2023-04-08T19:24:09.273Z,11.06
2023-04-08T19:26:36.742Z,10.98
2023-04-08T19:29:04.187Z,11.05
2023-04-08T19:31:31.757Z,11.05
2023-04-08T19:33:59.208Z,11.00
2023-04-08T19:36:27.527Z,10.98
2023-04-08T19:38:54.964Z,11.01
2023-04-08T19:41:23.157Z,10.88
2023-04-08T19:43:50.920Z,10.87
2023-04-08T19:46:18.551Z,10.89
2023-04-08T19:48:46.373Z,10.87
2023-04-08T19:51:20.305Z,10.83
2023-04-08T19:53:47.966Z,10.68
2023-04-08T19:56:16.345Z,10.63
2023-04-08T19:58:44.257Z,10.58
2023-04-08T20:01:14.123Z,10.54
2023-04-08T20:03:44.462Z,10.45
2023-04-08T20:06:12.034Z,10.42
2023-04-08T20:08:39.477Z,10.36
2023-04-08T20:11:06.985Z,10.32
2023-04-08T20:13:34.478Z,10.08
2023-04-08T20:16:02.465Z,10.04
2023-04-08T20:18:30.027Z,10.00
2023-04-08T20:20:57.964Z,9.92
2023-04-08T20:23:26.657Z,9.90
2023-04-08T20:25:54.824Z,9.83
2023-04-08T20:28:22.299Z,9.79
2023-04-08T20:30:49.870Z,9.83
2023-04-08T20:33:17.706Z,9.79
2023-04-08T20:35:45.247Z,9.85
2023-04-08T20:38:14.647Z,9.82
2023-04-08T20:40:45.526Z,9.82
2023-04-08T20:43:13.082Z,9.61
2023-04-08T20:45:41.179Z,9.69
2023-04-08T20:48:08.675Z,9.73
2023-04-08T20:50:36.200Z,9.60
2023-04-08T20:53:03.982Z,9.56
2023-04-08T20:55:31.568Z,9.40
2023-04-08T20:58:00.423Z,9.43
2023-04-08T21:00:27.910Z,9.35
2023-04-08T21:02:55.751Z,9.37
2023-04-08T21:05:23.384Z,9.30
2023-04-08T21:07:50.881Z,9.34
2023-04-08T21:10:18.475Z,9.29
2023-04-08T21:12:46.060Z,9.17
2023-04-08T21:15:13.597Z,9.19
2023-04-08T21:17:41.100Z,9.24
2023-04-08T21:20:08.921Z,9.30
2023-04-08T21:22:36.431Z,9.27
2023-04-08T21:25:04.471Z,9.26
2023-04-08T21:27:32.103Z,9.20
2023-04-08T21:29:59.678Z,9.12
2023-04-08T21:32:29.505Z,9.13
2023-04-08T21:34:57.663Z,9.22
2023-04-08T21:37:25.203Z,9.14
2023-04-08T21:39:53.796Z,9.30
2023-04-08T21:42:22.856Z,9.29
2023-04-08T21:44:50.830Z,9.26
2023-04-08T21:47:18.722Z,9.16
2023-04-08T21:49:46.306Z,9.21
2023-04-08T21:52:13.781Z,9.27
2023-04-08T21:54:41.252Z,9.13
2023-04-08T21:57:08.823Z,9.25
2023-04-08T21:59:36.343Z,9.25
2023-04-08T22:02:04.530Z,9.31
2023-04-08T22:04:31.976Z,9.33
2023-04-08T22:06:59.469Z,9.35
2023-04-08T22:09:27.036Z,9.23
2023-04-08T22:11:54.618Z,9.13
2023-04-08T22:14:22.123Z,9.17
2023-04-08T22:16:49.664Z,9.11
2023-04-08T22:19:17.124Z,9.09
2023-04-08T22:21:44.622Z,9.13
2023-04-08T22:24:12.062Z,9.13
2023-04-08T22:26:39.561Z,9.08
2023-04-08T22:29:07.370Z,9.15
2023-04-08T22:31:34.818Z,9.12
2023-04-08T22:34:02.380Z,9.01
2023-04-08T22:36:29.863Z,8.96
2023-04-08T22:38:57.358Z,8.91
2023-04-08T22:41:24.978Z,8.84
2023-04-08T22:43:52.423Z,8.78
2023-04-08T22:46:20.200Z,8.85
2023-04-08T22:48:49.355Z,8.84
2023-04-08T22:51:17.104Z,8.97
2023-04-08T22:53:44.693Z,8.94
2023-04-08T22:56:12.127Z,8.99
2023-04-08T22:58:39.607Z,9.14
2023-04-08T23:01:18.033Z,9.12
2023-04-08T23:03:45.631Z,9.10
2023-04-08T23:06:13.179Z,8.95
2023-04-08T23:08:40.798Z,9.08
2023-04-08T23:11:08.286Z,9.02
2023-04-08T23:13:35.939Z,8.98
2023-04-08T23:16:03.702Z,9.02
2023-04-08T23:18:31.246Z,9.07
2023-04-08T23:20:58.955Z,9.08
2023-04-08T23:23:26.496Z,9.26
2023-04-08T23:25:55.707Z,9.20
2023-04-08T23:28:23.499Z,9.14
2023-04-08T23:30:51.183Z,9.21
2023-04-08T23:33:18.715Z,9.24
2023-04-08T23:35:46.172Z,9.17
2023-04-08T23:38:13.633Z,9.16
2023-04-08T23:40:41.084Z,9.20
2023-04-08T23:43:08.506Z,9.34
2023-04-08T23:45:36.019Z,9.35
2023-04-08T23:48:03.643Z,9.41
2023-04-08T23:50:31.198Z,9.58
2023-04-08T23:52:58.636Z,9.52
2023-04-08T23:55:26.135Z,9.61
2023-04-08T23:57:53.796Z,9.62
